Time;durP1;ratioP1;P1;durP2;ratioP2;P2;SDS_P1;SDS_P2;PMS_P1;PMS_P2;Temp;Humidity;BMP_temperature;BMP_pressure;BME280_temperature;BME280_humidity;BME280_pressure;Samples;Min_cycle;Max_cycle;Signal;HPM_P1;HPM_P2
2022/03/05 00:00:49;;;;;;;9.30;6.83;;;0.30;92.60;;;;;;6125160;23;20474;-85
2022/03/05 00:03:15;;;;;;;8.57;6.67;;;0.30;92.40;;;;;;6128014;23;20164;-84
2022/03/05 00:05:41;;;;;;;13.40;7.30;;;0.40;92.40;;;;;;6123628;23;20741;-85
2022/03/05 00:08:08;;;;;;;10.00;7.07;;;0.40;91.70;;;;;;6125786;23;20164;-84
2022/03/05 00:10:35;;;;;;;11.60;7.60;;;0.50;91.90;;;;;;6126398;23;20398;-85
2022/03/05 00:13:00;;;;;;;11.07;7.03;;;0.60;91.40;;;;;;6123296;23;20820;-85
2022/03/05 00:15:28;;;;;;;9.97;6.80;;;0.60;90.90;;;;;;6126793;23;21096;-85
2022/03/05 00:17:54;;;;;;;8.63;6.47;;;0.70;90.90;;;;;;6123650;23;20415;-86
2022/03/05 00:20:24;;;;;;;15.17;6.60;;;0.70;90.90;;;;;;6128570;23;20404;-85
2022/03/05 00:22:52;;;;;;;11.10;7.10;;;0.60;91.00;;;;;;6126788;23;20473;-86
2022/03/05 00:25:20;;;;;;;11.13;6.57;;;0.50;91.10;;;;;;6129776;23;20412;-85
2022/03/05 00:27:49;;;;;;;9.10;6.50;;;0.50;91.20;;;;;;6129583;23;20396;-85
2022/03/05 00:30:17;;;;;;;11.17;7.50;;;0.50;91.10;;;;;;6135827;23;20384;-84
2022/03/05 00:32:45;;;;;;;9.90;7.43;;;0.50;91.60;;;;;;6130235;23;20392;-85
2022/03/05 00:35:11;;;;;;;9.17;6.70;;;0.30;91.80;;;;;;6127493;23;20396;-85
2022/03/05 00:37:38;;;;;;;9.43;6.93;;;0.30;92.20;;;;;;6128094;23;20912;-85
2022/03/05 00:40:04;;;;;;;9.43;6.23;;;0.30;92.20;;;;;;6132856;23;20395;-84
2022/03/05 00:42:30;;;;;;;7.83;6.20;;;0.40;92.20;;;;;;6126531;23;20403;-84
2022/03/05 00:44:55;;;;;;;9.70;6.80;;;0.40;92.40;;;;;;6127004;23;20627;-85
2022/03/05 00:47:21;;;;;;;10.57;6.90;;;0.30;93.10;;;;;;6125716;23;20167;-85
2022/03/05 00:49:47;;;;;;;13.20;7.60;;;0.20;93.20;;;;;;6128444;23;20165;-85
2022/03/05 00:52:24;;;;;;;8.67;6.40;;;0.20;93.00;;;;;;6151467;23;20164;-84
2022/03/05 00:54:50;;;;;;;9.97;6.80;;;0.10;93.30;;;;;;6128094;23;20384;-85
2022/03/05 00:57:15;;;;;;;10.40;6.60;;;0.00;93.50;;;;;;6124021;23;20168;-85
2022/03/05 00:59:41;;;;;;;10.20;6.00;;;0.10;93.60;;;;;;6124489;23;20196;-85
2022/03/05 01:02:06;;;;;;;8.87;6.00;;;0.30;93.40;;;;;;6125545;23;20556;-85
2022/03/05 01:04:32;;;;;;;9.60;6.60;;;0.20;93.60;;;;;;6126126;23;20165;-85
2022/03/05 01:06:57;;;;;;;10.80;7.10;;;0.30;93.40;;;;;;6129694;23;20152;-85
2022/03/05 01:09:23;;;;;;;10.40;6.97;;;0.30;93.50;;;;;;6131929;23;20161;-85
2022/03/05 01:11:49;;;;;;;9.57;6.37;;;0.30;93.30;;;;;;6135255;23;20157;-85
2022/03/05 01:14:14;;;;;;;10.17;6.27;;;0.30;93.50;;;;;;6129339;23;20171;-84
2022/03/05 01:16:40;;;;;;;11.40;7.77;;;0.20;93.60;;;;;;6128675;23;20156;-85
2022/03/05 01:19:05;;;;;;;10.57;6.90;;;0.20;94.10;;;;;;6127010;23;20544;-85
2022/03/05 01:21:31;;;;;;;10.63;7.07;;;0.20;94.10;;;;;;6131267;23;20625;-85
2022/03/05 01:23:56;;;;;;;10.43;6.97;;;0.10;94.10;;;;;;6131123;23;20479;-85
2022/03/05 01:26:22;;;;;;;10.30;7.23;;;0.10;94.30;;;;;;6134488;23;20796;-85
2022/03/05 01:29:00;;;;;;;9.27;6.77;;;0.10;94.50;;;;;;6129722;23;20260;-85
2022/03/05 01:31:25;;;;;;;10.17;6.30;;;0.20;94.40;;;;;;6129330;23;20156;-85
2022/03/05 01:33:51;;;;;;;13.00;6.57;;;0.10;94.70;;;;;;6128224;23;20450;-86
2022/03/05 01:36:17;;;;;;;8.60;6.27;;;0.10;95.10;;;;;;6127250;23;20180;-86
2022/03/05 01:38:42;;;;;;;14.33;8.07;;;0.00;95.30;;;;;;6129241;23;20579;-86
2022/03/05 01:41:08;;;;;;;12.23;7.20;;;0.00;96.00;;;;;;6130461;23;20156;-86
2022/03/05 01:43:34;;;;;;;8.97;6.20;;;-0.10;96.30;;;;;;6129037;23;20171;-84
2022/03/05 01:45:59;;;;;;;8.80;6.27;;;-0.20;96.60;;;;;;6127930;23;20418;-85
2022/03/05 01:48:25;;;;;;;10.70;7.17;;;-0.20;96.80;;;;;;6127038;23;20631;-84
2022/03/05 01:50:50;;;;;;;15.47;7.30;;;-0.20;97.00;;;;;;6123279;23;20164;-85
2022/03/05 01:53:16;;;;;;;9.40;7.23;;;-0.30;96.80;;;;;;6129339;23;20153;-84
2022/03/05 01:55:43;;;;;;;11.20;6.40;;;-0.20;96.80;;;;;;6124468;23;20172;-85
2022/03/05 01:58:08;;;;;;;10.07;5.90;;;-0.30;96.70;;;;;;6130126;23;20194;-85
2022/03/05 02:00:34;;;;;;;8.83;6.83;;;-0.20;96.90;;;;;;6124698;23;20400;-85
2022/03/05 02:02:59;;;;;;;9.33;6.60;;;-0.20;96.50;;;;;;6125474;23;20160;-85
2022/03/05 02:05:25;;;;;;;9.93;6.57;;;-0.20;96.60;;;;;;6118883;23;20164;-85
2022/03/05 02:07:51;;;;;;;9.87;6.87;;;-0.20;96.50;;;;;;6120400;23;20167;-85
2022/03/05 02:10:17;;;;;;;12.70;6.53;;;-0.10;96.60;;;;;;6122593;23;20169;-85
2022/03/05 02:12:44;;;;;;;10.43;6.87;;;-0.20;96.80;;;;;;6120627;23;20153;-85
2022/03/05 02:15:10;;;;;;;12.30;6.93;;;-0.20;97.20;;;;;;6116944;23;20395;-85
2022/03/05 02:17:36;;;;;;;8.23;6.87;;;-0.30;97.20;;;;;;6120843;23;20398;-84
2022/03/05 02:20:04;;;;;;;8.83;5.97;;;-0.40;97.60;;;;;;6119862;23;20605;-84
2022/03/05 02:22:29;;;;;;;9.97;7.00;;;-0.40;97.60;;;;;;6124996;23;20502;-84
2022/03/05 02:24:59;;;;;;;9.07;5.73;;;-0.40;97.60;;;;;;6124486;23;20954;-85
2022/03/05 02:27:26;;;;;;;8.30;6.43;;;-0.30;97.40;;;;;;6129639;23;20256;-85
2022/03/05 02:29:52;;;;;;;10.00;6.10;;;-0.30;97.70;;;;;;6127780;23;20487;-84
2022/03/05 02:32:20;;;;;;;8.83;6.30;;;-0.30;97.70;;;;;;6125739;23;20491;-85
2022/03/05 02:34:45;;;;;;;8.90;6.07;;;-0.40;97.80;;;;;;6130300;23;20419;-85
2022/03/05 02:37:13;;;;;;;11.47;7.10;;;-0.50;98.10;;;;;;6122078;23;20926;-85
2022/03/05 02:39:39;;;;;;;7.77;5.70;;;-0.50;98.10;;;;;;6129570;23;20443;-85
2022/03/05 02:42:05;;;;;;;8.40;5.97;;;-0.40;98.20;;;;;;6147953;23;20414;-85
2022/03/05 02:44:31;;;;;;;11.50;6.40;;;-0.50;98.30;;;;;;6131532;23;20394;-85
2022/03/05 02:46:58;;;;;;;8.80;6.57;;;-0.50;98.30;;;;;;6125839;23;20852;-85
2022/03/05 02:49:24;;;;;;;10.30;6.67;;;-0.50;98.50;;;;;;6129473;23;20161;-86
2022/03/05 02:51:49;;;;;;;9.10;6.80;;;-0.60;98.50;;;;;;6129429;23;20446;-86
2022/03/05 02:54:15;;;;;;;10.53;6.23;;;-0.60;98.50;;;;;;6130547;23;20434;-85
2022/03/05 02:56:40;;;;;;;8.80;6.40;;;-0.50;98.00;;;;;;6128038;23;20584;-85
2022/03/05 02:59:06;;;;;;;10.00;6.30;;;-0.40;98.10;;;;;;6130153;23;20597;-85
2022/03/05 03:01:32;;;;;;;22.57;12.37;;;-0.40;97.90;;;;;;6129355;23;20160;-85
2022/03/05 03:03:58;;;;;;;11.80;7.00;;;-0.40;97.90;;;;;;6125262;23;20533;-85
2022/03/05 03:06:23;;;;;;;9.40;6.40;;;-0.40;97.70;;;;;;6129829;23;20167;-85
2022/03/05 03:08:49;;;;;;;12.33;6.67;;;-0.50;97.70;;;;;;6155493;23;21077;-84
2022/03/05 03:11:14;;;;;;;11.40;6.20;;;-0.50;97.80;;;;;;6129414;23;20534;-84
2022/03/05 03:13:40;;;;;;;10.93;7.23;;;-0.50;98.10;;;;;;6130529;23;20153;-84
2022/03/05 03:16:05;;;;;;;10.37;7.17;;;-0.60;98.50;;;;;;6132102;23;20152;-84
2022/03/05 03:18:31;;;;;;;9.30;6.23;;;-0.70;98.90;;;;;;6125335;23;20425;-85
2022/03/05 03:20:56;;;;;;;10.13;6.57;;;-0.80;99.30;;;;;;6128652;23;20192;-85
2022/03/05 03:23:22;;;;;;;12.70;8.67;;;-0.80;99.00;;;;;;6131803;23;20682;-85
2022/03/05 03:25:51;;;;;;;10.07;6.47;;;-0.80;98.90;;;;;;6126208;23;20188;-85
2022/03/05 03:28:26;;;;;;;10.70;6.30;;;-0.80;99.00;;;;;;6150521;23;20152;-85
2022/03/05 03:30:52;;;;;;;11.53;7.63;;;-0.70;99.00;;;;;;6132768;23;20469;-85
2022/03/05 03:33:18;;;;;;;10.20;6.50;;;-0.60;98.60;;;;;;6130878;23;20164;-85
2022/03/05 03:35:43;;;;;;;8.67;6.13;;;-0.80;98.60;;;;;;6128484;23;20199;-85
2022/03/05 03:38:09;;;;;;;11.70;6.70;;;-0.70;98.80;;;;;;6126854;23;20191;-84
2022/03/05 03:40:34;;;;;;;9.13;6.30;;;-0.60;98.50;;;;;;6130246;23;20506;-85
2022/03/05 03:43:00;;;;;;;12.90;7.03;;;-0.60;98.30;;;;;;6128457;23;20868;-84
2022/03/05 03:45:25;;;;;;;9.30;6.70;;;-0.60;98.40;;;;;;6157093;23;20156;-84
2022/03/05 03:47:52;;;;;;;12.37;6.87;;;-0.60;98.20;;;;;;6128982;23;20160;-83
2022/03/05 03:50:20;;;;;;;13.57;8.00;;;-0.70;98.50;;;;;;6130824;23;20165;-84
2022/03/05 03:52:46;;;;;;;10.10;6.30;;;-0.60;98.30;;;;;;6125602;23;20437;-84
2022/03/05 03:55:17;;;;;;;12.30;6.97;;;-0.70;98.60;;;;;;6129560;23;21017;-84
2022/03/05 03:57:43;;;;;;;11.90;6.80;;;-0.80;98.80;;;;;;6127281;23;20172;-84
2022/03/05 04:00:12;;;;;;;10.43;6.17;;;-0.70;99.10;;;;;;6132492;23;20485;-84
2022/03/05 04:02:38;;;;;;;13.50;7.20;;;-0.80;99.40;;;;;;6139707;23;20599;-84
2022/03/05 04:05:04;;;;;;;10.80;7.10;;;-0.80;99.40;;;;;;6138016;23;21078;-85
2022/03/05 04:10:14;;;;;;;10.23;7.37;;;-0.70;99.20;;;;;;6157983;23;20446;-84
2022/03/05 04:12:39;;;;;;;10.67;6.50;;;-0.70;98.90;;;;;;6128099;23;20804;-85
2022/03/05 04:15:06;;;;;;;8.77;6.87;;;-0.80;99.50;;;;;;6134858;23;20176;-84
2022/03/05 04:17:31;;;;;;;12.87;7.37;;;-0.70;99.40;;;;;;6134355;23;20153;-85
2022/03/05 04:19:58;;;;;;;14.00;7.23;;;-0.70;99.20;;;;;;6135481;23;20443;-84
2022/03/05 04:22:23;;;;;;;10.97;7.90;;;-0.80;99.60;;;;;;6133855;23;20163;-84
2022/03/05 04:24:49;;;;;;;11.20;7.23;;;-0.90;99.80;;;;;;6136673;23;20499;-84
2022/03/05 04:27:14;;;;;;;10.03;6.80;;;-0.90;99.90;;;;;;6136707;23;20162;-85
2022/03/05 04:29:40;;;;;;;9.27;6.70;;;-0.80;99.60;;;;;;6134285;23;20205;-84
2022/03/05 04:32:06;;;;;;;9.43;6.80;;;-0.80;99.80;;;;;;6131856;23;20507;-84
2022/03/05 04:34:32;;;;;;;13.73;7.13;;;-0.90;99.70;;;;;;6130342;23;20156;-85
2022/03/05 04:36:58;;;;;;;8.20;6.50;;;-1.00;99.90;;;;;;6130135;23;20411;-85
2022/03/05 04:39:23;;;;;;;10.97;6.63;;;-1.00;99.90;;;;;;6129637;23;20440;-85
2022/03/05 04:41:49;;;;;;;10.10;7.47;;;-1.10;99.90;;;;;;6131343;23;20206;-84
2022/03/05 04:44:15;;;;;;;11.87;7.17;;;-1.10;99.90;;;;;;6134958;23;20304;-84
2022/03/05 04:46:40;;;;;;;10.43;6.70;;;-1.00;99.90;;;;;;6132855;23;20180;-84
2022/03/05 04:49:06;;;;;;;12.67;7.53;;;-1.10;99.90;;;;;;6128290;23;20825;-84
2022/03/05 04:51:34;;;;;;;9.67;6.80;;;-1.10;99.90;;;;;;6132756;23;20483;-84
2022/03/05 04:53:59;;;;;;;9.93;6.95;;;-1.10;99.90;;;;;;6131860;23;20152;-84
2022/03/05 04:56:25;;;;;;;13.00;7.87;;;-1.20;99.90;;;;;;6130583;23;20615;-84
2022/03/05 04:58:51;;;;;;;17.10;9.20;;;-1.30;99.90;;;;;;6128484;23;20250;-84
2022/03/05 05:01:18;;;;;;;14.13;8.37;;;-1.20;99.90;;;;;;6130863;23;20392;-84
2022/03/05 05:03:46;;;;;;;14.57;8.43;;;-1.30;99.90;;;;;;6162840;23;20191;-84
2022/03/05 05:06:15;;;;;;;14.70;7.68;;;-1.30;99.90;;;;;;6129005;23;20446;-84
2022/03/05 05:08:41;;;;;;;13.57;7.23;;;-1.30;99.90;;;;;;6130201;23;20594;-84
2022/03/05 05:11:06;;;;;;;13.30;8.40;;;-1.30;99.90;;;;;;6129325;23;20519;-85
2022/03/05 05:13:32;;;;;;;12.47;8.10;;;-1.40;99.90;;;;;;6129302;23;20682;-84
2022/03/05 05:15:58;;;;;;;10.03;7.10;;;-1.30;99.90;;;;;;6128561;23;20164;-85
2022/03/05 05:18:23;;;;;;;13.03;8.90;;;-1.20;99.90;;;;;;6130835;23;20619;-84
2022/03/05 05:20:49;;;;;;;17.10;8.63;;;-1.00;99.90;;;;;;6129772;23;20442;-83
2022/03/05 05:23:15;;;;;;;12.83;8.40;;;-1.00;99.90;;;;;;6128631;23;20589;-83
2022/03/05 05:25:41;;;;;;;15.30;8.97;;;-1.00;99.90;;;;;;6128374;23;20231;-85
2022/03/05 05:28:07;;;;;;;18.13;9.40;;;-0.90;99.90;;;;;;6122084;23;20593;-85
2022/03/05 05:30:33;;;;;;;14.95;9.32;;;-1.00;99.90;;;;;;6123363;23;20932;-83
2022/03/05 05:32:59;;;;;;;14.40;8.77;;;-1.00;99.90;;;;;;6132385;23;20157;-84
2022/03/05 05:35:25;;;;;;;13.43;8.37;;;-1.10;99.90;;;;;;6129620;23;20735;-83
2022/03/05 05:37:51;;;;;;;15.10;9.83;;;-1.20;99.90;;;;;;6129456;23;20450;-83
2022/03/05 05:40:16;;;;;;;12.80;7.97;;;-1.40;99.90;;;;;;6131607;23;20396;-84
2022/03/05 05:42:42;;;;;;;13.30;8.83;;;-1.50;99.90;;;;;;6123202;23;20259;-84
2022/03/05 05:45:09;;;;;;;15.60;9.40;;;-1.50;99.90;;;;;;6124230;23;20480;-85
2022/03/05 05:47:35;;;;;;;15.00;9.35;;;-1.50;99.90;;;;;;6130185;23;20160;-85
2022/03/05 05:50:00;;;;;;;15.17;10.07;;;-1.60;99.90;;;;;;6132717;23;20627;-84
2022/03/05 05:52:26;;;;;;;14.33;9.00;;;-1.50;99.90;;;;;;6127693;23;20882;-84
2022/03/05 05:54:52;;;;;;;15.63;9.10;;;-1.50;99.90;;;;;;6132200;23;20586;-84
2022/03/05 05:57:18;;;;;;;17.67;10.30;;;-1.50;99.90;;;;;;6126542;23;20417;-84
2022/03/05 05:59:44;;;;;;;15.47;9.20;;;-1.50;99.90;;;;;;6132509;23;20204;-85
2022/03/05 06:02:10;;;;;;;14.93;8.73;;;-1.40;99.90;;;;;;6156884;23;20450;-85
2022/03/05 06:04:36;;;;;;;14.50;9.10;;;-1.40;99.90;;;;;;6129973;23;20388;-83
2022/03/05 06:07:01;;;;;;;18.57;10.70;;;-1.50;99.90;;;;;;6107789;23;20172;-83
2022/03/05 06:09:27;;;;;;;22.57;10.43;;;-1.50;99.90;;;;;;6134864;23;20160;-85
2022/03/05 06:11:55;;;;;;;18.80;10.60;;;-1.40;99.90;;;;;;6131094;23;20477;-85
2022/03/05 06:14:20;;;;;;;15.45;9.65;;;-1.40;99.90;;;;;;6129721;23;20272;-85
2022/03/05 06:16:46;;;;;;;20.10;10.80;;;-1.40;99.90;;;;;;6130356;23;20268;-84
2022/03/05 06:19:14;;;;;;;16.60;10.38;;;-1.20;99.90;;;;;;6130877;23;20192;-85
2022/03/05 06:21:40;;;;;;;19.13;10.70;;;-1.20;99.90;;;;;;6129260;23;20396;-85
2022/03/05 06:24:07;;;;;;;20.93;11.63;;;-1.30;99.90;;;;;;6126946;23;20193;-85
2022/03/05 06:26:36;;;;;;;15.57;9.25;;;-1.20;99.90;;;;;;6124703;23;20180;-88
2022/03/05 06:29:01;;;;;;;21.85;11.52;;;-1.20;99.90;;;;;;6128189;23;20156;-87
2022/03/05 06:31:30;;;;;;;21.10;11.17;;;-1.20;99.90;;;;;;6129433;23;20555;-86
2022/03/05 06:34:08;;;;;;;18.77;10.75;;;-1.20;99.90;;;;;;6133241;23;20391;-87
2022/03/05 06:37:05;;;;;;;18.30;10.45;;;-1.20;99.90;;;;;;6129126;23;20160;-87
2022/03/05 06:39:49;;;;;;;21.20;12.10;;;-1.00;99.90;;;;;;6146339;23;20200;-86
2022/03/05 06:42:15;;;;;;;16.02;9.95;;;-0.90;99.90;;;;;;6127756;23;20644;-86
2022/03/05 06:45:04;;;;;;;15.48;9.32;;;-0.90;99.90;;;;;;6127586;23;20173;-86
2022/03/05 06:47:32;;;;;;;16.90;10.45;;;-0.80;99.90;;;;;;6128358;23;20160;-86
2022/03/05 06:50:00;;;;;;;16.27;10.10;;;-0.60;99.90;;;;;;6133560;23;20218;-87
2022/03/05 06:52:28;;;;;;;18.10;10.07;;;-0.50;99.90;;;;;;6133779;23;20166;-86
2022/03/05 06:55:00;;;;;;;15.70;9.80;;;-0.50;99.90;;;;;;6132941;23;20175;-89
2022/03/05 06:57:36;;;;;;;19.57;11.40;;;-0.50;99.90;;;;;;6133991;23;20722;-88
2022/03/05 07:00:05;;;;;;;21.02;11.27;;;-0.40;99.90;;;;;;6135135;23;20462;-88
2022/03/05 07:02:31;;;;;;;18.23;10.90;;;-0.30;99.90;;;;;;6132406;23;20604;-86
2022/03/05 07:04:56;;;;;;;21.23;11.10;;;-0.20;99.90;;;;;;6130029;23;20921;-87
2022/03/05 07:07:44;;;;;;;14.80;10.47;;;-0.30;99.90;;;;;;6133643;23;20200;-90
2022/03/05 07:10:35;;;;;;;18.47;10.87;;;-0.20;99.90;;;;;;6111136;23;20160;-88
2022/03/05 07:13:07;;;;;;;17.77;10.40;;;-0.10;99.90;;;;;;6159466;23;20388;-86
2022/03/05 07:16:36;;;;;;;17.53;10.67;;;-0.10;99.90;;;;;;6155644;23;20391;-89
2022/03/05 07:19:10;;;;;;;18.37;11.67;;;0.10;99.90;;;;;;6127305;23;20899;-87
2022/03/05 07:21:35;;;;;;;18.10;11.47;;;0.20;99.90;;;;;;6129150;23;20395;-85
2022/03/05 07:24:04;;;;;;;19.43;10.83;;;0.30;99.90;;;;;;6129122;23;20160;-87
2022/03/05 07:26:29;;;;;;;21.63;10.63;;;0.40;99.90;;;;;;6106737;23;20515;-85
2022/03/05 07:28:55;;;;;;;16.20;11.00;;;0.50;99.90;;;;;;6128338;23;20407;-87
2022/03/05 07:31:21;;;;;;;14.27;9.93;;;0.50;99.90;;;;;;6130172;23;20606;-88
2022/03/05 07:33:47;;;;;;;18.00;10.80;;;0.70;99.90;;;;;;6157062;23;20394;-88
2022/03/05 07:36:14;;;;;;;16.43;11.37;;;0.80;99.90;;;;;;6135697;23;20964;-88
2022/03/05 07:38:43;;;;;;;19.47;11.40;;;0.80;99.90;;;;;;6136153;23;20329;-89
2022/03/05 07:41:08;;;;;;;15.70;9.93;;;0.80;99.90;;;;;;6136998;23;20922;-86
2022/03/05 07:43:34;;;;;;;17.97;11.23;;;0.90;99.90;;;;;;6132210;23;20399;-88
2022/03/05 07:45:59;;;;;;;15.60;10.67;;;1.00;99.90;;;;;;6126079;23;20153;-87
2022/03/05 07:48:25;;;;;;;19.77;11.20;;;1.00;99.90;;;;;;6127550;23;20427;-86
2022/03/05 07:50:51;;;;;;;19.00;11.97;;;1.30;99.90;;;;;;6130377;23;20184;-87
2022/03/05 07:53:17;;;;;;;22.00;12.00;;;1.50;99.90;;;;;;6125638;23;20156;-86
2022/03/05 07:55:42;;;;;;;17.47;11.00;;;1.70;99.70;;;;;;6132621;23;20383;-86
2022/03/05 07:58:09;;;;;;;16.60;10.93;;;1.80;99.40;;;;;;6135141;23;20161;-86
2022/03/05 08:00:34;;;;;;;17.37;11.23;;;1.90;99.10;;;;;;6134142;23;20164;-86
2022/03/05 08:03:02;;;;;;;19.10;11.20;;;1.90;98.80;;;;;;6133937;23;20391;-87
2022/03/05 08:05:27;;;;;;;18.33;11.60;;;2.00;99.20;;;;;;6134399;23;20156;-88
2022/03/05 08:07:54;;;;;;;16.70;10.53;;;2.00;98.80;;;;;;6135427;23;20384;-88
2022/03/05 08:10:20;;;;;;;18.20;11.13;;;2.20;99.00;;;;;;6135891;23;20160;-87
2022/03/05 08:12:46;;;;;;;17.17;11.63;;;2.30;98.40;;;;;;6135618;23;20380;-87
2022/03/05 08:15:12;;;;;;;18.63;11.70;;;2.40;98.50;;;;;;6136453;23;20491;-88
2022/03/05 08:17:48;;;;;;;17.97;11.10;;;2.50;98.80;;;;;;6140183;23;20211;-87
2022/03/05 08:20:21;;;;;;;15.67;11.17;;;2.60;98.70;;;;;;6137075;23;20199;-87
2022/03/05 08:22:46;;;;;;;18.80;11.93;;;2.70;98.10;;;;;;6113510;23;20398;-88
2022/03/05 08:25:12;;;;;;;16.33;11.70;;;2.80;97.90;;;;;;6139175;23;20739;-88
2022/03/05 08:27:41;;;;;;;19.30;11.90;;;3.00;97.70;;;;;;6139701;23;20164;-87
2022/03/05 08:30:12;;;;;;;18.37;11.30;;;3.00;97.80;;;;;;6136487;23;20428;-87
2022/03/05 08:32:51;;;;;;;17.83;12.47;;;3.10;97.40;;;;;;6154294;23;20739;-88
2022/03/05 08:35:16;;;;;;;17.10;12.10;;;3.00;97.40;;;;;;6130680;23;20454;-88
2022/03/05 08:37:43;;;;;;;19.03;11.33;;;3.20;97.20;;;;;;6137227;23;20173;-87
2022/03/05 08:40:12;;;;;;;16.70;11.73;;;3.50;97.60;;;;;;6132051;23;20284;-87
2022/03/05 08:42:38;;;;;;;22.60;13.30;;;3.50;96.80;;;;;;6130513;23;20389;-88
2022/03/05 08:45:06;;;;;;;19.13;11.80;;;3.60;96.50;;;;;;6135257;23;20403;-87
2022/03/05 08:47:44;;;;;;;17.60;12.07;;;3.50;95.90;;;;;;6131657;23;20392;-87
2022/03/05 08:50:26;;;;;;;21.40;12.30;;;3.70;96.50;;;;;;6132398;23;20398;-88
2022/03/05 08:52:57;;;;;;;19.20;11.60;;;3.90;96.20;;;;;;6130319;23;20399;-87
2022/03/05 08:55:24;;;;;;;17.30;11.40;;;3.80;95.70;;;;;;6137069;23;20393;-88
2022/03/05 08:58:07;;;;;;;17.70;12.80;;;3.80;95.80;;;;;;6133012;23;20391;-87
2022/03/05 09:00:32;;;;;;;20.87;11.97;;;3.70;95.80;;;;;;6131572;23;20437;-87
2022/03/05 09:02:58;;;;;;;18.07;12.83;;;4.10;95.90;;;;;;6130835;23;20842;-88
2022/03/05 09:05:23;;;;;;;16.73;11.67;;;4.60;95.20;;;;;;6132998;23;20164;-87
2022/03/05 09:07:49;;;;;;;19.90;11.80;;;4.90;94.70;;;;;;6131106;23;20680;-87
2022/03/05 09:10:16;;;;;;;17.87;12.60;;;5.10;94.20;;;;;;6134273;23;20156;-87
2022/03/05 09:12:48;;;;;;;18.47;11.87;;;5.20;94.10;;;;;;6131464;23;20168;-88
2022/03/05 09:15:16;;;;;;;18.10;12.90;;;4.90;93.30;;;;;;6130292;23;20392;-87
2022/03/05 09:17:42;;;;;;;19.17;12.87;;;5.10;94.60;;;;;;6139231;23;20395;-87
2022/03/05 09:20:10;;;;;;;16.70;12.40;;;5.20;94.10;;;;;;6137151;23;20189;-87
2022/03/05 09:22:38;;;;;;;16.30;11.40;;;5.30;93.60;;;;;;6141286;23;20156;-87
2022/03/05 09:25:18;;;;;;;15.73;12.10;;;5.50;93.80;;;;;;6134779;23;20612;-88
2022/03/05 09:27:50;;;;;;;18.03;12.40;;;5.90;92.70;;;;;;6142409;23;20578;-87
2022/03/05 09:30:17;;;;;;;17.60;13.10;;;6.00;92.00;;;;;;6136583;23;20396;-87
2022/03/05 09:32:45;;;;;;;17.70;11.43;;;6.00;91.50;;;;;;6141946;23;20396;-88
2022/03/05 09:35:19;;;;;;;18.00;11.60;;;5.80;91.00;;;;;;6137164;23;20734;-87
2022/03/05 09:38:06;;;;;;;19.10;13.17;;;6.00;91.30;;;;;;6141308;23;20399;-88
2022/03/05 09:40:34;;;;;;;16.60;12.80;;;6.30;91.30;;;;;;6165610;23;20475;-87
2022/03/05 09:43:06;;;;;;;17.80;11.07;;;6.20;91.20;;;;;;6142104;23;20883;-88
2022/03/05 09:45:49;;;;;;;15.93;11.47;;;6.20;90.60;;;;;;6137520;23;20408;-87
2022/03/05 09:48:36;;;;;;;14.67;10.97;;;6.40;89.00;;;;;;6166618;23;20380;-88
2022/03/05 09:51:07;;;;;;;14.47;10.40;;;6.40;88.40;;;;;;6137406;23;20508;-89
2022/03/05 09:53:54;;;;;;;13.60;10.40;;;6.70;87.20;;;;;;6165781;23;20878;-89
2022/03/05 09:56:22;;;;;;;19.90;12.63;;;7.00;87.20;;;;;;6139652;23;20391;-89
2022/03/05 09:58:50;;;;;;;15.30;11.00;;;7.00;87.50;;;;;;6141203;23;20744;-88
2022/03/05 10:01:17;;;;;;;15.60;10.90;;;7.10;86.90;;;;;;6137918;23;20891;-88
2022/03/05 10:03:53;;;;;;;15.47;10.90;;;7.00;85.80;;;;;;6139909;23;20387;-88
2022/03/05 10:06:24;;;;;;;13.23;10.37;;;7.00;86.10;;;;;;6137617;23;20383;-88
2022/03/05 10:08:55;;;;;;;14.00;10.57;;;7.00;85.80;;;;;;6141466;23;20384;-88
2022/03/05 10:11:37;;;;;;;14.77;10.83;;;7.10;85.60;;;;;;6139169;23;20390;-88
2022/03/05 10:14:14;;;;;;;16.80;11.67;;;7.30;85.30;;;;;;6139273;23;20792;-88
2022/03/05 10:16:40;;;;;;;14.50;10.20;;;7.50;85.20;;;;;;6139586;23;20399;-88
2022/03/05 10:19:21;;;;;;;13.57;10.00;;;7.50;83.00;;;;;;6140473;23;20442;-88
2022/03/05 10:22:01;;;;;;;11.10;9.00;;;7.80;84.00;;;;;;6138492;23;20317;-88
2022/03/05 10:24:40;;;;;;;12.10;9.10;;;7.70;79.90;;;;;;6139333;23;20394;-88
2022/03/05 10:27:08;;;;;;;13.60;8.70;;;7.40;79.10;;;;;;6149509;23;20387;-88
2022/03/05 10:29:39;;;;;;;12.73;8.83;;;7.20;79.90;;;;;;6142125;23;20482;-88
2022/03/05 10:32:09;;;;;;;10.30;7.47;;;7.10;78.00;;;;;;6141055;23;21097;-88
2022/03/05 10:34:41;;;;;;;9.50;7.17;;;7.70;76.20;;;;;;6140562;23;20868;-88
2022/03/05 10:37:06;;;;;;;10.83;7.10;;;8.40;72.70;;;;;;6140876;23;20391;-88
2022/03/05 10:39:34;;;;;;;9.50;7.20;;;8.00;68.40;;;;;;6142179;23;20559;-87
2022/03/05 10:42:00;;;;;;;7.60;6.50;;;8.00;73.40;;;;;;6140871;23;20156;-87
2022/03/05 10:44:26;;;;;;;9.57;7.33;;;7.90;68.30;;;;;;6140339;23;20439;-87
2022/03/05 10:47:04;;;;;;;9.17;6.23;;;7.60;67.50;;;;;;6139951;23;20548;-87
2022/03/05 10:49:38;;;;;;;9.10;7.00;;;7.80;68.20;;;;;;6140205;23;20155;-87
2022/03/05 10:52:04;;;;;;;10.67;7.90;;;7.90;68.70;;;;;;6140389;23;20401;-88
2022/03/05 10:54:39;;;;;;;9.90;7.60;;;8.00;66.90;;;;;;6140189;23;20392;-88
2022/03/05 10:57:21;;;;;;;10.50;7.77;;;8.10;64.80;;;;;;6140073;23;20176;-87
2022/03/05 11:00:06;;;;;;;8.23;6.83;;;7.80;65.60;;;;;;6139414;23;20490;-87
2022/03/05 11:02:32;;;;;;;9.70;7.03;;;8.00;66.50;;;;;;6141010;23;20710;-87
2022/03/05 11:04:58;;;;;;;7.70;6.70;;;8.50;66.10;;;;;;6139889;23;20483;-87
2022/03/05 11:07:25;;;;;;;9.30;6.70;;;9.00;58.50;;;;;;6140605;23;20168;-86
2022/03/05 11:09:54;;;;;;;9.57;7.40;;;9.00;57.30;;;;;;6139375;23;21185;-86
2022/03/05 11:12:21;;;;;;;9.60;7.37;;;8.40;60.00;;;;;;6140262;23;20742;-87
2022/03/05 11:14:48;;;;;;;6.63;5.93;;;8.20;59.10;;;;;;6141204;23;20417;-87
2022/03/05 11:17:15;;;;;;;8.30;6.40;;;8.50;60.80;;;;;;6140982;23;20678;-86
2022/03/05 11:19:41;;;;;;;8.50;6.50;;;8.60;61.50;;;;;;6140948;23;20446;-87
2022/03/05 11:22:23;;;;;;;8.43;6.60;;;8.60;61.90;;;;;;6139670;23;20665;-87
2022/03/05 11:24:49;;;;;;;7.07;5.80;;;8.70;62.90;;;;;;6140252;23;20172;-86
2022/03/05 11:27:16;;;;;;;9.40;6.80;;;9.10;60.40;;;;;;6140700;23;21208;-86
2022/03/05 11:30:06;;;;;;;8.97;6.70;;;9.50;62.80;;;;;;6165450;23;20409;-87
2022/03/05 11:32:35;;;;;;;8.47;6.10;;;9.20;60.10;;;;;;6136813;23;20385;-86
2022/03/05 11:35:16;;;;;;;8.97;6.47;;;9.50;60.50;;;;;;6137147;23;20418;-87
2022/03/05 11:37:44;;;;;;;7.43;6.03;;;9.00;59.20;;;;;;6137616;23;20714;-87
2022/03/05 11:40:39;;;;;;;7.50;5.90;;;9.00;58.20;;;;;;6137821;23;20511;-88
2022/03/05 11:43:22;;;;;;;9.70;6.93;;;9.20;57.70;;;;;;6139577;23;20441;-87
2022/03/05 11:45:59;;;;;;;8.27;7.30;;;9.40;55.60;;;;;;6140385;23;20755;-87
2022/03/05 11:48:36;;;;;;;7.57;6.30;;;9.20;58.00;;;;;;6139315;23;20400;-88
2022/03/05 11:51:16;;;;;;;8.77;6.03;;;9.50;60.40;;;;;;6136686;23;20896;-88
2022/03/05 11:53:42;;;;;;;7.20;6.30;;;9.60;58.90;;;;;;6137387;23;20747;-87
2022/03/05 11:56:25;;;;;;;7.70;6.43;;;9.50;58.30;;;;;;6137964;23;20781;-88
2022/03/05 11:58:53;;;;;;;8.17;6.13;;;9.50;56.70;;;;;;6138641;23;20433;-88
2022/03/05 12:01:32;;;;;;;7.40;6.67;;;9.50;56.80;;;;;;6137302;23;21126;-87
2022/03/05 12:04:03;;;;;;;8.93;6.33;;;9.60;54.20;;;;;;6140264;23;20435;-88
2022/03/05 12:06:41;;;;;;;7.90;6.30;;;10.00;54.20;;;;;;6136754;23;20387;-87
2022/03/05 12:09:07;;;;;;;8.50;6.50;;;10.00;53.20;;;;;;6139408;23;20385;-88
2022/03/05 12:11:35;;;;;;;7.57;6.17;;;9.50;55.10;;;;;;6138075;23;20414;-87
2022/03/05 12:14:01;;;;;;;8.10;6.33;;;9.50;55.60;;;;;;6139357;23;20157;-88
2022/03/05 12:16:29;;;;;;;9.57;6.90;;;9.50;56.00;;;;;;6136190;23;20886;-87
2022/03/05 12:18:58;;;;;;;8.27;6.90;;;9.30;57.40;;;;;;6139494;23;20490;-88
2022/03/05 12:21:29;;;;;;;9.03;7.20;;;9.60;56.90;;;;;;6137132;23;21019;-88
2022/03/05 12:24:22;;;;;;;9.73;7.37;;;10.20;57.40;;;;;;6138420;23;20392;-88
2022/03/05 12:26:55;;;;;;;8.77;6.33;;;9.70;55.70;;;;;;6134646;23;20401;-87
2022/03/05 12:29:21;;;;;;;8.03;6.87;;;9.80;56.30;;;;;;6138000;23;20798;-87
2022/03/05 12:31:47;;;;;;;8.20;7.00;;;9.90;54.60;;;;;;6137686;23;20879;-88
2022/03/05 12:34:13;;;;;;;7.43;6.33;;;10.20;53.40;;;;;;6133365;23;20428;-87
2022/03/05 12:36:43;;;;;;;7.53;6.10;;;10.20;54.10;;;;;;6137621;23;20164;-87
2022/03/05 12:39:09;;;;;;;8.30;7.13;;;10.10;50.90;;;;;;6139015;23;21001;-87
2022/03/05 12:41:35;;;;;;;8.20;6.87;;;10.10;52.40;;;;;;6139989;23;20398;-88
2022/03/05 12:44:01;;;;;;;8.60;7.03;;;10.00;53.20;;;;;;6139748;23;20403;-88
2022/03/05 12:46:27;;;;;;;7.00;6.30;;;10.40;54.40;;;;;;6137436;23;20890;-88
2022/03/05 12:48:52;;;;;;;9.70;6.77;;;10.60;51.00;;;;;;6139253;23;20160;-88
2022/03/05 12:51:21;;;;;;;9.20;6.43;;;10.70;48.90;;;;;;6139270;23;20160;-87
2022/03/05 12:53:46;;;;;;;8.93;6.70;;;10.60;50.40;;;;;;6139230;23;20156;-88